createdAt,value
2023-04-07T00:01:52.224Z,12.57
2023-04-07T00:04:19.354Z,14.40
2023-04-07T00:06:46.437Z,13.32
2023-04-07T00:09:13.114Z,16.75
2023-04-07T00:11:39.788Z,13.45
2023-04-07T00:14:06.446Z,15.88
2023-04-07T00:16:33.117Z,14.40
2023-04-07T00:18:59.845Z,18.30
2023-04-07T00:21:27.163Z,11.55
2023-04-07T00:23:54.201Z,15.57
2023-04-07T00:26:21.232Z,12.82
2023-04-07T00:28:47.870Z,15.98
2023-04-07T00:31:14.651Z,12.80
2023-04-07T00:33:41.402Z,15.70
2023-04-07T00:36:08.158Z,14.90
2023-04-07T00:38:34.795Z,15.57
2023-04-07T00:41:01.416Z,14.25
2023-04-07T00:43:28.149Z,11.35
2023-04-07T00:45:54.903Z,13.35
2023-04-07T00:48:22.178Z,11.23
2023-04-07T00:50:48.914Z,12.85
2023-04-07T00:53:16.494Z,11.45
2023-04-07T00:55:43.512Z,11.85
2023-04-07T00:58:10.320Z,14.32
2023-04-07T01:00:45.558Z,12.27
2023-04-07T01:03:36.666Z,10.85
2023-04-07T01:06:06.854Z,13.57
2023-04-07T01:08:42.286Z,16.25
2023-04-07T01:11:59.607Z,14.35
2023-04-07T01:14:31.341Z,12.80
2023-04-07T01:17:01.950Z,13.00
2023-04-07T01:19:43.205Z,15.80
2023-04-07T01:22:19.167Z,13.52
2023-04-07T01:25:15.541Z,16.73
2023-04-07T01:28:14.447Z,14.10
2023-04-07T01:30:44.123Z,13.00
2023-04-07T01:33:12.570Z,17.85
2023-04-07T01:35:41.532Z,12.35
2023-04-07T01:38:09.513Z,12.18
2023-04-07T01:40:38.678Z,14.18
2023-04-07T01:43:06.725Z,16.55
2023-04-07T01:45:35.657Z,15.75
2023-04-07T01:48:05.581Z,15.50
2023-04-07T01:50:32.849Z,13.65
2023-04-07T01:53:00.478Z,15.48
2023-04-07T01:55:27.125Z,15.90
2023-04-07T01:57:54.263Z,13.25
2023-04-07T02:00:21.251Z,13.20
2023-04-07T02:02:52.155Z,17.95
2023-04-07T02:05:21.784Z,13.85
2023-04-07T02:08:01.134Z,14.00
2023-04-07T02:10:29.577Z,15.30
2023-04-07T02:12:58.673Z,11.27
2023-04-07T02:15:27.138Z,13.85
2023-04-07T02:17:56.274Z,15.00
2023-04-07T02:20:24.360Z,14.07
2023-04-07T02:22:51.281Z,17.25
2023-04-07T02:25:29.406Z,13.30
2023-04-07T02:27:57.783Z,15.15
2023-04-07T02:30:25.450Z,16.08
2023-04-07T02:32:52.906Z,15.00
2023-04-07T02:35:19.558Z,15.90
2023-04-07T02:37:47.012Z,16.20
2023-04-07T02:40:13.944Z,18.17
2023-04-07T02:42:40.752Z,16.90
2023-04-07T02:45:08.698Z,15.88
2023-04-07T02:47:36.555Z,16.17
2023-04-07T02:50:03.537Z,14.38
2023-04-07T02:52:30.200Z,17.13
2023-04-07T02:54:56.952Z,16.35
2023-04-07T02:57:23.530Z,17.80
2023-04-07T02:59:50.136Z,13.50
2023-04-07T03:02:16.782Z,15.45
2023-04-07T03:04:43.506Z,15.40
2023-04-07T03:07:10.306Z,14.80
2023-04-07T03:09:36.892Z,13.90
2023-04-07T03:12:03.768Z,15.93
2023-04-07T03:14:30.344Z,15.45
2023-04-07T03:16:57.436Z,14.07
2023-04-07T03:19:24.007Z,19.55
2023-04-07T03:21:51.196Z,17.83
2023-04-07T03:24:18.493Z,23.58
2023-04-07T03:26:45.157Z,13.93
2023-04-07T03:29:11.754Z,14.90
2023-04-07T03:31:38.556Z,15.75
2023-04-07T03:34:05.369Z,15.55
2023-04-07T03:36:31.944Z,16.85
2023-04-07T03:38:58.773Z,16.58
2023-04-07T03:41:25.428Z,14.75
2023-04-07T03:43:52.337Z,15.32
2023-04-07T03:46:21.423Z,16.52
2023-04-07T03:48:48.162Z,16.38
2023-04-07T03:51:15.045Z,20.92
2023-04-07T03:53:41.685Z,15.98
2023-04-07T03:56:08.563Z,17.60
2023-04-07T03:58:35.237Z,19.33
2023-04-07T04:01:01.826Z,18.02
2023-04-07T04:03:28.560Z,24.15
2023-04-07T04:05:55.257Z,52.97
2023-04-07T04:08:21.855Z,33.88
2023-04-07T04:10:48.509Z,18.88
2023-04-07T04:13:15.086Z,21.92
2023-04-07T04:15:41.747Z,20.00
2023-04-07T04:18:08.773Z,26.05
2023-04-07T04:20:35.467Z,21.60
2023-04-07T04:23:02.399Z,19.77
2023-04-07T04:25:28.997Z,16.20
2023-04-07T04:27:56.029Z,17.13
2023-04-07T04:30:22.854Z,16.55
2023-04-07T04:32:50.422Z,16.70
2023-04-07T04:35:17.061Z,20.60
2023-04-07T04:37:43.614Z,25.00
2023-04-07T04:40:11.703Z,25.63
2023-04-07T04:42:38.295Z,18.50
2023-04-07T04:45:05.340Z,25.23
2023-04-07T04:47:31.951Z,32.63
2023-04-07T04:49:58.702Z,61.40
2023-04-07T04:52:25.328Z,33.45
2023-04-07T04:54:51.924Z,27.27
2023-04-07T04:57:18.586Z,36.58
2023-04-07T04:59:45.175Z,35.47
2023-04-07T05:02:12.011Z,24.27
2023-04-07T05:04:38.815Z,31.10
2023-04-07T05:07:05.720Z,24.95
2023-04-07T05:09:32.382Z,29.98
2023-04-07T05:11:59.032Z,24.08
2023-04-07T05:14:25.731Z,23.98
2023-04-07T05:16:52.886Z,24.73
2023-04-07T05:19:19.514Z,22.38
2023-04-07T05:21:46.477Z,25.17
2023-04-07T05:24:13.175Z,27.75
2023-04-07T05:26:39.833Z,30.13
2023-04-07T05:29:06.552Z,22.55
2023-04-07T05:31:36.024Z,24.55
2023-04-07T05:34:02.770Z,28.10
2023-04-07T05:36:29.396Z,26.30
2023-04-07T05:38:56.372Z,26.05
2023-04-07T05:41:22.928Z,23.55
2023-04-07T05:43:49.682Z,24.40
2023-04-07T05:46:16.460Z,23.25
2023-04-07T05:48:43.062Z,23.35
2023-04-07T05:51:09.662Z,22.23
2023-04-07T05:53:36.330Z,23.60
2023-04-07T05:56:02.951Z,31.40
2023-04-07T05:58:29.524Z,19.45
2023-04-07T06:00:56.139Z,26.52
2023-04-07T06:03:23.001Z,20.45
2023-04-07T06:05:50.076Z,19.83
2023-04-07T06:08:16.716Z,22.85
2023-04-07T06:10:44.335Z,22.35
2023-04-07T06:13:10.937Z,26.08
2023-04-07T06:15:37.533Z,26.02
2023-04-07T06:18:04.140Z,22.80
2023-04-07T06:20:31.229Z,23.67
2023-04-07T06:22:57.894Z,25.65
2023-04-07T06:25:24.668Z,25.70
2023-04-07T06:27:51.673Z,27.63
2023-04-07T06:30:18.523Z,26.65
2023-04-07T06:32:45.466Z,31.17
2023-04-07T06:35:12.096Z,31.20
2023-04-07T06:37:39.450Z,31.25
2023-04-07T06:40:07.967Z,30.42
2023-04-07T06:42:34.644Z,25.73
2023-04-07T06:45:01.262Z,28.35
2023-04-07T06:47:28.354Z,31.05
2023-04-07T06:49:55.358Z,22.60
2023-04-07T06:52:22.008Z,24.27
2023-04-07T06:54:48.746Z,24.65
2023-04-07T06:57:15.676Z,27.25
2023-04-07T06:59:42.330Z,24.98
2023-04-07T07:02:09.234Z,20.05
2023-04-07T07:04:36.055Z,24.88
2023-04-07T07:07:03.412Z,25.83
2023-04-07T07:09:30.067Z,25.55
2023-04-07T07:11:57.651Z,20.50
2023-04-07T07:14:24.382Z,20.50
2023-04-07T07:16:51.018Z,23.17
2023-04-07T07:19:17.619Z,24.10
2023-04-07T07:21:44.281Z,23.02
2023-04-07T07:24:10.987Z,26.85
2023-04-07T07:26:37.603Z,25.02
2023-04-07T07:29:04.419Z,25.30
2023-04-07T07:31:31.501Z,20.52
2023-04-07T07:33:58.342Z,20.00
2023-04-07T07:36:25.199Z,26.55
2023-04-07T07:38:51.902Z,22.50
2023-04-07T07:41:18.619Z,21.85
2023-04-07T07:43:45.474Z,22.63
2023-04-07T07:46:12.246Z,25.98
2023-04-07T07:48:39.015Z,26.75
2023-04-07T07:51:05.944Z,23.30
2023-04-07T07:53:32.599Z,25.42
2023-04-07T07:55:59.280Z,26.38
2023-04-07T07:58:25.872Z,25.60
2023-04-07T08:00:52.448Z,21.70
2023-04-07T08:03:19.987Z,20.48
2023-04-07T08:05:48.455Z,20.77
2023-04-07T08:08:15.125Z,16.17
2023-04-07T08:10:41.752Z,15.32
2023-04-07T08:13:08.399Z,20.75
2023-04-07T08:15:35.023Z,19.55
2023-04-07T08:18:04.465Z,16.77
2023-04-07T08:20:32.746Z,17.40
2023-04-07T08:23:00.734Z,18.63
2023-04-07T08:25:27.376Z,22.20
2023-04-07T08:27:54.124Z,20.85
2023-04-07T08:30:24.103Z,22.00
2023-04-07T08:32:51.002Z,17.63
2023-04-07T08:35:17.662Z,21.33
2023-04-07T08:37:44.564Z,24.25
2023-04-07T08:40:12.349Z,18.95
2023-04-07T08:42:43.015Z,18.83
2023-04-07T08:45:10.174Z,26.33
2023-04-07T08:47:37.616Z,17.20
2023-04-07T08:50:10.082Z,19.90
2023-04-07T08:52:55.733Z,19.65
2023-04-07T08:55:22.672Z,19.58
2023-04-07T08:57:50.086Z,22.02
2023-04-07T09:00:17.040Z,20.80
2023-04-07T09:02:45.564Z,22.92
2023-04-07T09:05:14.670Z,21.20
2023-04-07T09:07:43.266Z,18.58
2023-04-07T09:10:10.416Z,21.77
2023-04-07T09:12:37.867Z,22.05
2023-04-07T09:15:07.621Z,21.10
2023-04-07T09:17:34.261Z,21.25
2023-04-07T09:20:01.914Z,21.45
2023-04-07T09:22:36.794Z,24.10
2023-04-07T09:25:12.780Z,17.88
2023-04-07T09:27:39.521Z,23.95
2023-04-07T09:30:14.986Z,24.13
2023-04-07T09:32:41.981Z,26.30
2023-04-07T09:35:09.228Z,24.50
2023-04-07T09:37:36.238Z,23.10
2023-04-07T09:40:03.255Z,21.05
2023-04-07T09:42:32.509Z,21.98
2023-04-07T09:45:00.442Z,29.15
2023-04-07T09:47:32.768Z,25.75
2023-04-07T09:50:01.955Z,25.42
2023-04-07T09:52:52.414Z,23.17
2023-04-07T09:55:23.721Z,26.48
2023-04-07T09:57:51.173Z,24.95
2023-04-07T10:00:18.668Z,23.08
2023-04-07T10:02:45.938Z,26.80
2023-04-07T10:05:12.830Z,24.27
2023-04-07T10:07:42.488Z,24.42
2023-04-07T10:10:10.036Z,23.75
2023-04-07T10:12:38.141Z,29.58
2023-04-07T10:15:05.191Z,27.50
2023-04-07T10:17:32.941Z,26.80
2023-04-07T10:20:00.046Z,26.90
2023-04-07T10:22:28.777Z,35.38
2023-04-07T10:25:09.662Z,29.33
2023-04-07T10:27:49.927Z,25.15
2023-04-07T10:30:27.074Z,22.58
2023-04-07T10:32:55.460Z,26.05
2023-04-07T10:35:23.107Z,32.15
2023-04-07T10:38:14.147Z,26.45
2023-04-07T10:40:42.990Z,26.83
2023-04-07T10:43:11.386Z,22.23
2023-04-07T10:45:47.086Z,23.15
2023-04-07T10:48:15.629Z,20.88
2023-04-07T10:50:42.689Z,21.05
2023-04-07T10:53:12.170Z,21.15
2023-04-07T10:55:39.643Z,22.10
2023-04-07T10:58:23.842Z,22.38
2023-04-07T11:01:10.725Z,23.63
2023-04-07T11:06:11.246Z,26.25
2023-04-07T11:08:49.443Z,16.50
2023-04-07T11:11:34.669Z,13.02
2023-04-07T11:14:01.537Z,13.80
2023-04-07T11:16:42.855Z,18.75
2023-04-07T11:19:09.655Z,16.42
2023-04-07T11:21:36.802Z,15.55
2023-04-07T11:24:03.740Z,14.25
2023-04-07T11:26:36.751Z,17.50
2023-04-07T11:29:03.513Z,15.57
2023-04-07T11:31:33.950Z,17.50
2023-04-07T11:34:02.623Z,20.40
2023-04-07T11:36:29.161Z,20.40
2023-04-07T11:38:57.633Z,19.17
2023-04-07T11:41:27.296Z,21.70
2023-04-07T11:44:14.473Z,22.25
2023-04-07T11:46:59.112Z,19.17
2023-04-07T11:49:31.756Z,23.10
2023-04-07T11:51:59.694Z,22.70
2023-04-07T11:54:26.465Z,23.13
2023-04-07T11:56:55.637Z,22.00
2023-04-07T11:59:24.483Z,20.17
2023-04-07T12:01:53.492Z,17.77
2023-04-07T12:04:22.212Z,21.90
2023-04-07T12:06:49.325Z,21.10
2023-04-07T12:09:35.866Z,19.17
2023-04-07T12:12:03.993Z,19.63
2023-04-07T12:14:30.642Z,19.65
2023-04-07T12:16:58.229Z,20.23
2023-04-07T12:19:29.498Z,14.63
2023-04-07T12:21:56.909Z,18.30
2023-04-07T12:24:24.230Z,23.52
2023-04-07T12:26:50.852Z,18.85
2023-04-07T12:29:19.965Z,22.17
2023-04-07T12:31:49.425Z,20.17
2023-04-07T12:34:17.273Z,21.65
2023-04-07T12:36:44.709Z,23.80
2023-04-07T12:39:11.662Z,23.00
2023-04-07T12:41:38.820Z,21.40
2023-04-07T12:44:05.990Z,20.95
2023-04-07T12:46:32.762Z,22.10
2023-04-07T12:48:59.432Z,21.58
2023-04-07T12:51:27.172Z,20.02
2023-04-07T12:53:54.289Z,23.58
2023-04-07T12:56:22.465Z,21.67
2023-04-07T12:58:49.193Z,21.27
2023-04-07T13:01:16.764Z,25.45
2023-04-07T13:03:43.930Z,20.00
2023-04-07T13:06:11.765Z,25.08
2023-04-07T13:08:39.429Z,21.88
2023-04-07T13:11:06.448Z,18.90
2023-04-07T13:13:33.376Z,22.73
2023-04-07T13:16:00.140Z,20.38
2023-04-07T13:18:26.710Z,21.20
2023-04-07T13:21:13.193Z,16.95
2023-04-07T13:23:43.587Z,21.38
2023-04-07T13:26:11.197Z,20.08
2023-04-07T13:28:38.908Z,18.90
2023-04-07T13:31:05.730Z,17.70
2023-04-07T13:33:32.511Z,23.05
2023-04-07T13:35:59.181Z,21.73
2023-04-07T13:38:26.426Z,23.75
2023-04-07T13:40:53.007Z,15.52
2023-04-07T13:43:20.134Z,22.08
2023-04-07T13:45:47.000Z,21.15
2023-04-07T13:48:13.691Z,23.70
2023-04-07T13:50:40.925Z,21.48
2023-04-07T13:53:07.610Z,21.70
2023-04-07T13:55:34.249Z,22.77
2023-04-07T13:58:00.922Z,21.65
2023-04-07T14:00:27.518Z,22.27
2023-04-07T14:02:56.326Z,23.38
2023-04-07T14:05:23.396Z,23.48
2023-04-07T14:07:50.964Z,18.40
2023-04-07T14:10:18.129Z,18.23
2023-04-07T14:12:44.826Z,19.70
2023-04-07T14:15:11.833Z,19.27
2023-04-07T14:17:38.574Z,20.38
2023-04-07T14:20:06.089Z,20.17
2023-04-07T14:22:32.742Z,22.95
2023-04-07T14:24:59.699Z,23.27
2023-04-07T14:27:26.425Z,27.38
2023-04-07T14:29:54.126Z,20.88
2023-04-07T14:32:20.918Z,21.17
2023-04-07T14:34:47.906Z,23.15
2023-04-07T14:37:16.171Z,23.35
2023-04-07T14:39:45.933Z,23.27
2023-04-07T14:42:22.497Z,23.85
2023-04-07T14:44:49.768Z,29.60
2023-04-07T14:47:16.355Z,19.58
2023-04-07T14:49:42.940Z,21.55
2023-04-07T14:52:10.504Z,20.17
2023-04-07T14:54:37.272Z,22.42
2023-04-07T14:57:03.865Z,25.55
2023-04-07T14:59:30.524Z,23.38
2023-04-07T15:01:57.217Z,21.67
2023-04-07T15:04:24.078Z,21.73
2023-04-07T15:06:50.784Z,25.83
2023-04-07T15:09:18.870Z,26.40
2023-04-07T15:11:48.294Z,22.25
2023-04-07T15:14:15.344Z,21.88
2023-04-07T15:16:42.032Z,22.52
2023-04-07T15:19:08.701Z,19.40
2023-04-07T15:21:35.356Z,21.63
2023-04-07T15:24:02.000Z,20.85
2023-04-07T15:26:28.555Z,20.92
2023-04-07T15:28:55.207Z,24.25
2023-04-07T15:31:23.341Z,25.45
2023-04-07T15:33:51.574Z,24.88
2023-04-07T15:36:19.435Z,21.45
2023-04-07T15:38:46.084Z,24.58
2023-04-07T15:41:16.934Z,20.30
2023-04-07T15:43:43.565Z,24.08
2023-04-07T15:46:10.452Z,20.75
2023-04-07T15:48:37.094Z,21.60
2023-04-07T15:51:03.852Z,21.10
2023-04-07T15:53:30.769Z,22.33
2023-04-07T15:55:57.555Z,25.80
2023-04-07T15:58:24.210Z,20.02
2023-04-07T16:00:51.227Z,18.23
2023-04-07T16:03:18.036Z,18.92
2023-04-07T16:05:44.841Z,18.52
2023-04-07T16:08:13.572Z,18.60
2023-04-07T16:10:40.656Z,22.48
2023-04-07T16:13:07.277Z,20.40
2023-04-07T16:15:40.550Z,21.98
2023-04-07T16:18:10.205Z,20.20
2023-04-07T16:20:38.245Z,21.63
2023-04-07T16:23:04.946Z,23.77
2023-04-07T16:25:31.642Z,20.38
2023-04-07T16:27:58.188Z,21.92
2023-04-07T16:30:25.319Z,16.67
2023-04-07T16:32:52.268Z,19.58
2023-04-07T16:35:19.346Z,22.30
2023-04-07T16:37:46.632Z,20.50
2023-04-07T16:40:13.974Z,20.05
2023-04-07T16:42:40.996Z,20.60
2023-04-07T16:45:08.623Z,24.27
2023-04-07T16:47:35.597Z,22.45
2023-04-07T16:50:03.880Z,20.75
2023-04-07T16:52:31.193Z,22.05
2023-04-07T16:54:58.020Z,24.25
2023-04-07T16:57:24.693Z,23.58
2023-04-07T16:59:51.276Z,24.98
2023-04-07T17:02:18.119Z,22.33
2023-04-07T17:04:44.910Z,23.60
2023-04-07T17:07:12.082Z,24.15
2023-04-07T17:09:39.322Z,24.73
2023-04-07T17:12:06.293Z,25.50
2023-04-07T17:14:33.810Z,28.55
2023-04-07T17:17:00.867Z,26.55
2023-04-07T17:19:27.687Z,25.35
2023-04-07T17:21:54.341Z,28.75
2023-04-07T17:24:21.159Z,24.55
2023-04-07T17:26:47.992Z,23.80
2023-04-07T17:29:15.927Z,25.55
2023-04-07T17:31:42.907Z,24.38
2023-04-07T17:34:10.380Z,29.90
2023-04-07T17:36:37.767Z,24.73
2023-04-07T17:39:05.465Z,26.23
2023-04-07T17:41:35.750Z,25.42
2023-04-07T17:44:02.548Z,24.73
2023-04-07T17:46:29.510Z,24.73
2023-04-07T17:48:59.872Z,25.40
2023-04-07T17:51:27.039Z,30.55
2023-04-07T17:53:54.293Z,28.80
2023-04-07T17:56:21.476Z,30.52
2023-04-07T17:58:48.322Z,30.55
2023-04-07T18:01:15.707Z,29.00
2023-04-07T18:03:42.968Z,31.98
2023-04-07T18:06:09.644Z,28.63
2023-04-07T18:08:36.574Z,28.13
2023-04-07T18:11:05.280Z,24.02
2023-04-07T18:13:33.909Z,34.67
2023-04-07T18:16:00.800Z,29.67
2023-04-07T18:18:27.524Z,30.02
2023-04-07T18:20:54.148Z,27.02
2023-04-07T18:23:20.746Z,31.52
2023-04-07T18:25:47.631Z,27.70
2023-04-07T18:28:14.285Z,25.77
2023-04-07T18:30:42.030Z,26.33
2023-04-07T18:33:08.968Z,23.50
2023-04-07T18:35:35.817Z,25.35
2023-04-07T18:38:04.584Z,23.42
2023-04-07T18:40:33.374Z,23.63
2023-04-07T18:43:00.108Z,21.60
2023-04-07T18:45:26.761Z,21.02
2023-04-07T18:47:53.391Z,22.25
2023-04-07T18:50:20.182Z,21.52
2023-04-07T18:52:46.758Z,29.15
2023-04-07T18:55:13.419Z,21.13
2023-04-07T18:57:40.398Z,24.02
2023-04-07T19:00:08.526Z,23.77
2023-04-07T19:02:35.527Z,20.73
2023-04-07T19:05:02.299Z,21.33
2023-04-07T19:07:28.877Z,24.85
2023-04-07T19:09:55.571Z,22.20
2023-04-07T19:12:22.339Z,24.30
2023-04-07T19:14:48.952Z,20.27
2023-04-07T19:17:15.658Z,19.38
2023-04-07T19:19:42.285Z,23.52
2023-04-07T19:22:08.859Z,20.17
2023-04-07T19:24:36.193Z,22.35
2023-04-07T19:27:03.321Z,20.40
2023-04-07T19:29:29.917Z,20.02
2023-04-07T19:31:57.353Z,22.73
2023-04-07T19:34:24.053Z,22.15
2023-04-07T19:36:50.745Z,19.20
2023-04-07T19:39:17.336Z,22.13
2023-04-07T19:41:43.972Z,22.08
2023-04-07T19:44:10.815Z,22.45
2023-04-07T19:46:37.583Z,19.48
2023-04-07T19:49:04.147Z,19.42
2023-04-07T19:51:31.087Z,23.05
2023-04-07T19:53:57.709Z,18.17
2023-04-07T19:56:25.134Z,20.92
2023-04-07T19:58:51.864Z,19.48
2023-04-07T20:01:19.148Z,23.25
2023-04-07T20:03:46.802Z,23.08
2023-04-07T20:06:15.111Z,22.45
2023-04-07T20:08:42.407Z,24.02
2023-04-07T20:11:13.131Z,22.30
2023-04-07T20:13:42.371Z,20.98
2023-04-07T20:16:09.562Z,23.83
2023-04-07T20:18:36.609Z,22.67
2023-04-07T20:21:06.309Z,21.67
2023-04-07T20:23:34.067Z,21.70
2023-04-07T20:26:02.276Z,25.90
2023-04-07T20:28:29.099Z,24.58
2023-04-07T20:30:56.092Z,23.67
2023-04-07T20:33:22.784Z,27.50
2023-04-07T20:35:51.385Z,27.92
2023-04-07T20:38:18.828Z,24.17
2023-04-07T20:40:46.134Z,23.70
2023-04-07T20:43:13.275Z,27.67
2023-04-07T20:45:40.897Z,22.10
2023-04-07T20:48:25.698Z,20.58
2023-04-07T20:50:52.924Z,22.35
2023-04-07T20:53:20.235Z,24.98
2023-04-07T20:55:49.106Z,21.35
2023-04-07T20:58:16.687Z,27.52
2023-04-07T21:00:43.308Z,23.77
2023-04-07T21:03:10.033Z,24.05
2023-04-07T21:05:37.086Z,23.02
2023-04-07T21:08:03.899Z,25.98
2023-04-07T21:10:33.103Z,27.17
2023-04-07T21:12:59.631Z,22.15
2023-04-07T21:15:26.269Z,20.70
2023-04-07T21:17:53.576Z,23.63
2023-04-07T21:20:20.942Z,23.42
2023-04-07T22:11:42.846Z,26.65
2023-04-07T22:14:09.528Z,28.83
2023-04-07T22:16:36.146Z,31.52
2023-04-07T22:19:03.439Z,26.90
2023-04-07T22:21:30.813Z,30.35
2023-04-07T22:23:57.385Z,26.70
2023-04-07T22:26:24.100Z,30.77
2023-04-07T22:28:50.997Z,29.98
2023-04-07T22:31:17.888Z,25.85
2023-04-07T22:33:44.529Z,24.33
2023-04-07T22:36:11.317Z,26.35
2023-04-07T22:38:37.957Z,33.60
2023-04-07T22:41:04.786Z,27.25
2023-04-07T22:43:31.590Z,28.83
2023-04-07T22:45:58.170Z,25.63
2023-04-07T22:48:24.887Z,23.52
2023-04-07T22:50:51.443Z,30.52
2023-04-07T22:53:18.050Z,24.83
2023-04-07T22:55:44.767Z,24.52
2023-04-07T22:58:11.645Z,29.27
2023-04-07T23:00:38.392Z,26.08
2023-04-07T23:03:05.306Z,21.48
2023-04-07T23:05:32.093Z,26.42
2023-04-07T23:07:58.672Z,20.95
2023-04-07T23:10:25.325Z,23.15
2023-04-07T23:12:53.990Z,25.38
2023-04-07T23:15:20.913Z,20.65
2023-04-07T23:17:47.721Z,20.13
2023-04-07T23:20:14.444Z,26.30
2023-04-07T23:22:41.171Z,22.60
2023-04-07T23:25:08.159Z,21.10
2023-04-07T23:27:34.804Z,24.17
2023-04-07T23:30:01.618Z,20.35
2023-04-07T23:32:28.788Z,23.45
2023-04-07T23:34:55.462Z,26.55
2023-04-07T23:37:22.067Z,25.20
2023-04-07T23:39:48.606Z,24.77
2023-04-07T23:42:15.274Z,28.88
2023-04-07T23:44:41.950Z,26.33
2023-04-07T23:47:08.610Z,24.85
2023-04-07T23:49:35.201Z,24.05
2023-04-07T23:52:01.838Z,24.35
2023-04-07T23:54:28.472Z,25.63
2023-04-07T23:56:55.087Z,25.20
2023-04-07T23:59:21.677Z,26.00
